Forside
METAR-TAF:

METAR-TAF

Lufthavne :

Ljungbyhed, Sverige

Breddekreds: 56-04N, længdekreds: 013-12E, højde: 43 m

Aktuelle vejr

Denne rapport blev lavet for 14 minutter siden, kl. 14:50 UTC
Vind 8 kt fra østnordøst
Temperatur 17°C
Fugtighed 39%
Tryk 1024 hPa
Sigt 10 km eller mere

METAR: ESTL 171450Z AUTO 06008KT 9999 FEW074/// 17/03 Q1024

Tid: 17:04 (15:04 UTC)

Vejrudsigter

Denne rapport blev lavet for 28 timer og 3 minutter siden, kl. 11:01 UTC
Foreløbig gælder fra 16 på 12 UTC til 16 på 15 UTC
Vind 10 kt fra nordnordøst
Sigt 10 km eller mere
ingen skyer under 1500m og ingen cumulonimbus

TAF: ESTL 161101Z 1612/1615 03010KT CAVOK

Vejrobservationer og prognoser fra mere end 4000 lufthavne (METAR og TAF).

De gule og røde prikker repræsenterer de meteorologiske stationer.

Flyt musen over at se navnet på stationen.

Så klik over at se vejr observationer og prognoser.

At skifte det kort: Klik på de grønne knapper med et sort kors for at zoome ind; på den grønne knap med en bindestreg for at zoome ud; eller på de grønne pile for tilstødende kort.


METAR-TAF: